createdAt,value
2022-11-05T00:00:49.893Z,51.216145
2022-11-05T00:01:48.960Z,51.216274
2022-11-05T00:02:48.885Z,51.216507
2022-11-05T00:03:48.930Z,51.216099
2022-11-05T00:04:48.869Z,51.216114
2022-11-05T00:05:48.865Z,51.216160
2022-11-05T00:06:48.852Z,51.216167
2022-11-05T00:07:48.857Z,51.216099
2022-11-05T00:08:48.861Z,51.216240
2022-11-05T00:09:48.850Z,51.216175
2022-11-05T00:10:48.817Z,51.216225
2022-11-05T00:11:48.806Z,51.216286
2022-11-05T00:12:48.809Z,51.216156
2022-11-05T00:13:48.814Z,51.216072
2022-11-05T00:14:48.794Z,51.216026
2022-11-05T00:15:48.779Z,51.216000
2022-11-05T00:16:48.769Z,51.216072
2022-11-05T00:17:48.764Z,51.216183
2022-11-05T00:18:48.774Z,51.216084
2022-11-05T00:19:48.761Z,51.216057
2022-11-05T00:20:48.762Z,51.216019
2022-11-05T00:21:48.743Z,51.216125
2022-11-05T00:22:48.745Z,51.216167
2022-11-05T00:23:48.733Z,51.216305
2022-11-05T00:24:48.742Z,51.216427
2022-11-05T00:25:48.704Z,51.216515
2022-11-05T00:26:48.710Z,51.216221
2022-11-05T00:27:48.707Z,51.216164
2022-11-05T00:28:48.689Z,51.216187
2022-11-05T00:29:48.721Z,51.216179
2022-11-05T00:30:48.694Z,51.216232
2022-11-05T00:31:48.677Z,51.216328
2022-11-05T00:32:48.662Z,51.216244
2022-11-05T00:33:48.657Z,51.216263
2022-11-05T00:34:48.645Z,51.216240
2022-11-05T00:35:48.649Z,51.216312
2022-11-05T00:36:48.629Z,51.216167
2022-11-05T00:37:50.405Z,51.216122
2022-11-05T00:38:49.625Z,51.216133
2022-11-05T00:39:48.614Z,51.216118
2022-11-05T00:40:48.646Z,51.216187
2022-11-05T00:41:48.615Z,51.216053
2022-11-05T00:42:48.616Z,51.216106
2022-11-05T00:43:48.596Z,51.216236
2022-11-05T00:44:48.593Z,51.216202
2022-11-05T00:45:48.591Z,51.216167
2022-11-05T00:46:48.580Z,51.216236
2022-11-05T00:47:48.574Z,51.216141
2022-11-05T00:48:48.571Z,51.216110
2022-11-05T00:49:48.560Z,51.216270
2022-11-05T00:50:48.546Z,51.216171
2022-11-05T00:51:48.543Z,51.216122
2022-11-05T00:52:48.533Z,51.216167
2022-11-05T00:53:48.532Z,51.216061
2022-11-05T00:54:48.513Z,51.216114
2022-11-05T00:55:48.499Z,51.216160
2022-11-05T00:56:48.801Z,51.216122
2022-11-05T00:57:48.844Z,51.216114
2022-11-05T00:58:48.482Z,51.216011
2022-11-05T00:59:48.494Z,51.216026
2022-11-05T01:00:48.500Z,51.215988
2022-11-05T01:01:48.627Z,51.216038
2022-11-05T01:02:48.522Z,51.216122
2022-11-05T01:03:51.621Z,51.216156
2022-11-05T01:04:49.440Z,51.216034
2022-11-05T01:05:48.433Z,51.216076
2022-11-05T01:06:48.416Z,51.216114
2022-11-05T01:07:48.436Z,51.215996
2022-11-05T01:08:48.408Z,51.215996
2022-11-05T01:09:48.418Z,51.216084
2022-11-05T01:10:48.400Z,51.216145
2022-11-05T01:11:48.384Z,51.216167
2022-11-05T01:12:48.396Z,51.216122
2022-11-05T01:13:48.365Z,51.216122
2022-11-05T01:14:48.527Z,51.216129
2022-11-05T01:15:48.373Z,51.216133
2022-11-05T01:16:48.344Z,51.216133
2022-11-05T01:17:48.359Z,51.216145
2022-11-05T01:18:48.333Z,51.216084
2022-11-05T01:19:48.329Z,51.216148
2022-11-05T01:20:48.327Z,51.216103
2022-11-05T01:21:48.324Z,51.216114
2022-11-05T01:22:48.309Z,51.216114
2022-11-05T01:23:48.303Z,51.216084
2022-11-05T01:24:48.296Z,51.216106
2022-11-05T01:25:48.287Z,51.216156
2022-11-05T01:26:48.290Z,51.216122
2022-11-05T01:27:48.280Z,51.216114
2022-11-05T01:28:48.335Z,51.216118
2022-11-05T01:29:48.262Z,51.216133
2022-11-05T01:30:48.253Z,51.216137
2022-11-05T01:31:48.268Z,51.216194
2022-11-05T01:32:48.239Z,51.216087
2022-11-05T01:33:48.229Z,51.216095
2022-11-05T01:34:48.277Z,51.216148
2022-11-05T01:35:48.222Z,51.216145
2022-11-05T01:36:48.239Z,51.216156
2022-11-05T01:37:48.196Z,51.216133
2022-11-05T01:38:48.192Z,51.216011
2022-11-05T01:39:48.221Z,51.216003
2022-11-05T01:40:48.207Z,51.216095
2022-11-05T01:41:48.351Z,51.216076
2022-11-05T01:42:48.171Z,51.216022
2022-11-05T01:43:48.149Z,51.216034
2022-11-05T01:44:48.140Z,51.216087
2022-11-05T01:45:48.135Z,51.216091
2022-11-05T01:46:48.132Z,51.216103
2022-11-05T01:47:48.128Z,51.216095
2022-11-05T01:48:48.124Z,51.216053
2022-11-05T01:49:48.093Z,51.216118
2022-11-05T01:50:48.104Z,51.216137
2022-11-05T01:51:48.202Z,51.216133
2022-11-05T01:52:48.082Z,51.216167
2022-11-05T01:53:48.080Z,51.216095
2022-11-05T01:54:48.076Z,51.216015
2022-11-05T01:55:48.068Z,51.216053
2022-11-05T01:56:48.056Z,51.216045
2022-11-05T01:57:48.052Z,51.215954
2022-11-05T01:58:48.052Z,51.215973
2022-11-05T01:59:48.040Z,51.215942
2022-11-05T02:00:48.076Z,51.215958
2022-11-05T02:01:48.231Z,51.215977
2022-11-05T02:02:48.170Z,51.216003
2022-11-05T02:03:48.035Z,51.216038
2022-11-05T02:04:48.004Z,51.216099
2022-11-05T02:05:47.996Z,51.216091
2022-11-05T02:06:47.991Z,51.216076
2022-11-05T02:07:47.992Z,51.216099
2022-11-05T02:08:47.991Z,51.216084
2022-11-05T02:09:47.973Z,51.216045
2022-11-05T02:10:47.959Z,51.216080
2022-11-05T02:11:47.971Z,51.216129
2022-11-05T02:12:47.939Z,51.216091
2022-11-05T02:13:47.971Z,51.216095
2022-11-05T02:14:47.929Z,51.216125
2022-11-05T02:15:47.920Z,51.216160
2022-11-05T02:16:47.912Z,51.216187
2022-11-05T02:17:47.908Z,51.216183
2022-11-05T02:18:47.900Z,51.216160
2022-11-05T02:19:47.908Z,51.216076
2022-11-05T02:20:51.953Z,51.216084
2022-11-05T02:21:48.892Z,51.216103
2022-11-05T02:22:47.908Z,51.216156
2022-11-05T02:23:47.948Z,51.216118
2022-11-05T02:24:47.872Z,51.216152
2022-11-05T02:25:47.851Z,51.216175
2022-11-05T02:26:47.896Z,51.216137
2022-11-05T02:27:47.821Z,51.216175
2022-11-05T02:28:47.823Z,51.216087
2022-11-05T02:29:47.917Z,51.216084
2022-11-05T02:30:47.814Z,51.216175
2022-11-05T02:31:47.811Z,51.216125
2022-11-05T02:32:47.820Z,51.216061
2022-11-05T02:33:47.834Z,51.215984
2022-11-05T02:34:47.784Z,51.216034
2022-11-05T02:35:47.772Z,51.216084
2022-11-05T02:36:47.780Z,51.216129
2022-11-05T02:37:47.757Z,51.216160
2022-11-05T02:38:47.761Z,51.216152
2022-11-05T02:39:47.768Z,51.216061
2022-11-05T02:40:47.751Z,51.215984
2022-11-05T02:41:47.728Z,51.215965
2022-11-05T02:42:47.715Z,51.216118
2022-11-05T02:43:47.720Z,51.216122
2022-11-05T02:44:47.738Z,51.216118
2022-11-05T02:45:47.716Z,51.216087
2022-11-05T02:46:47.703Z,51.216000
2022-11-05T02:47:47.692Z,51.216095
2022-11-05T02:48:47.679Z,51.215981
2022-11-05T02:49:47.676Z,51.216003
2022-11-05T02:50:47.660Z,51.216019
2022-11-05T02:51:47.663Z,51.216034
2022-11-05T02:52:47.646Z,51.216038
2022-11-05T02:53:47.737Z,51.216087
2022-11-05T02:54:47.638Z,51.216087
2022-11-05T02:55:47.635Z,51.216091
2022-11-05T02:56:47.707Z,51.216053
2022-11-05T02:57:47.656Z,51.216034
2022-11-05T02:58:47.615Z,51.216030
2022-11-05T02:59:47.621Z,51.216049
2022-11-05T03:00:47.638Z,51.216133
2022-11-05T03:01:47.753Z,51.216099
2022-11-05T03:02:47.869Z,51.216118
2022-11-05T03:03:47.592Z,51.216152
2022-11-05T03:04:47.571Z,51.216198
2022-11-05T03:05:47.568Z,51.216167
2022-11-05T03:06:47.569Z,51.216213
2022-11-05T03:07:47.543Z,51.216129
2022-11-05T03:08:47.573Z,51.216133
2022-11-05T03:09:47.549Z,51.216160
2022-11-05T03:10:47.540Z,51.216125
2022-11-05T03:11:47.543Z,51.216141
2022-11-05T03:12:47.537Z,51.216045
2022-11-05T03:13:47.512Z,51.215942
2022-11-05T03:14:47.510Z,51.216125
2022-11-05T03:15:47.531Z,51.216122
2022-11-05T03:16:47.511Z,51.216061
2022-11-05T03:17:47.475Z,51.216042
2022-11-05T03:18:47.477Z,51.216110
2022-11-05T03:19:47.468Z,51.216152
2022-11-05T03:20:47.463Z,51.216118
2022-11-05T03:21:47.481Z,51.216122
2022-11-05T03:22:47.442Z,51.216118
2022-11-05T03:23:47.441Z,51.216137
2022-11-05T03:24:47.430Z,51.216171
2022-11-05T03:25:47.435Z,51.216068
2022-11-05T03:26:47.415Z,51.216091
2022-11-05T03:27:47.507Z,51.216118
2022-11-05T03:28:47.399Z,51.216175
2022-11-05T03:29:47.391Z,51.216148
2022-11-05T03:30:47.383Z,51.216106
2022-11-05T03:31:47.382Z,51.216106
2022-11-05T03:32:47.383Z,51.216091
2022-11-05T03:33:47.368Z,51.216152
2022-11-05T03:34:47.371Z,51.216095
2022-11-05T03:35:47.352Z,51.216084
2022-11-05T03:36:47.375Z,51.216064
2022-11-05T03:37:47.351Z,51.216007
2022-11-05T03:38:47.331Z,51.216015
2022-11-05T03:39:47.319Z,51.215958
2022-11-05T03:40:47.376Z,51.216034
2022-11-05T03:41:47.326Z,51.216068
2022-11-05T03:42:48.310Z,51.216106
2022-11-05T03:43:47.307Z,51.216122
2022-11-05T03:44:47.288Z,51.216080
2022-11-05T03:45:47.286Z,51.216145
2022-11-05T03:46:47.281Z,51.216106
2022-11-05T03:47:47.279Z,51.216118
2022-11-05T03:48:47.340Z,51.216084
2022-11-05T03:49:47.246Z,51.216061
2022-11-05T03:50:47.240Z,51.216122
2022-11-05T03:51:47.231Z,51.216152
2022-11-05T03:52:47.243Z,51.216160
2022-11-05T03:53:47.213Z,51.216167
2022-11-05T03:54:47.232Z,51.216228
2022-11-05T03:55:47.213Z,51.216137
2022-11-05T03:56:47.197Z,51.216076
2022-11-05T03:57:47.224Z,51.216137
2022-11-05T03:58:47.179Z,51.216068
2022-11-05T03:59:47.178Z,51.216030
2022-11-05T04:00:47.173Z,51.216156
2022-11-05T04:01:47.197Z,51.216049
2022-11-05T04:02:47.350Z,51.216099
2022-11-05T04:03:47.299Z,51.216103
2022-11-05T04:04:47.135Z,51.216133
2022-11-05T04:05:47.133Z,51.216118
2022-11-05T04:06:47.127Z,51.216095
2022-11-05T04:07:47.119Z,51.216022
2022-11-05T04:08:47.123Z,51.216034
2022-11-05T04:09:47.129Z,51.216114
2022-11-05T04:10:47.099Z,51.216103
2022-11-05T04:11:47.093Z,51.216129
2022-11-05T04:12:47.088Z,51.216175
2022-11-05T04:13:47.129Z,51.216133
2022-11-05T04:14:47.062Z,51.216091
2022-11-05T04:15:47.068Z,51.216095
2022-11-05T04:16:47.051Z,51.216095
2022-11-05T04:17:47.045Z,51.216068
2022-11-05T04:18:47.048Z,51.216152
2022-11-05T04:19:47.035Z,51.216072
2022-11-05T04:20:47.019Z,51.216129
2022-11-05T04:21:47.011Z,51.216133
2022-11-05T04:22:47.006Z,51.216133
2022-11-05T04:23:47.015Z,51.216206
2022-11-05T04:24:46.988Z,51.216148
2022-11-05T04:25:46.991Z,51.216160
2022-11-05T04:26:46.971Z,51.216198
2022-11-05T04:27:46.968Z,51.216164
2022-11-05T04:28:46.975Z,51.216091
2022-11-05T04:29:46.976Z,51.216103
2022-11-05T04:30:46.953Z,51.216103
2022-11-05T04:31:46.950Z,51.216015
2022-11-05T04:32:46.935Z,51.216053
2022-11-05T04:33:46.930Z,51.216164
2022-11-05T04:34:46.943Z,51.216103
2022-11-05T04:35:46.925Z,51.216133
2022-11-05T04:36:46.934Z,51.216175
2022-11-05T04:37:46.894Z,51.216091
2022-11-05T04:38:46.912Z,51.216152
2022-11-05T04:39:46.924Z,51.216118
2022-11-05T04:40:46.899Z,51.216061
2022-11-05T04:41:46.867Z,51.216164
2022-11-05T04:42:46.872Z,51.216198
2022-11-05T04:43:46.877Z,51.216187
2022-11-05T04:44:46.859Z,51.216087
2022-11-05T04:45:46.984Z,51.216084
2022-11-05T04:46:46.849Z,51.216080
2022-11-05T04:47:46.843Z,51.216095
2022-11-05T04:48:46.834Z,51.215912
2022-11-05T04:49:46.834Z,51.215950
2022-11-05T04:50:46.818Z,51.216236
2022-11-05T04:51:46.813Z,51.216148
2022-11-05T04:52:46.798Z,51.216099
2022-11-05T04:53:46.786Z,51.215996
2022-11-05T04:54:46.807Z,51.216000
2022-11-05T04:55:46.790Z,51.216137
2022-11-05T04:56:46.778Z,51.216164
2022-11-05T04:57:46.762Z,51.216053
2022-11-05T04:58:46.763Z,51.215923
2022-11-05T04:59:46.761Z,51.216011
2022-11-05T05:00:46.947Z,51.216049
2022-11-05T05:01:46.791Z,51.216045
2022-11-05T05:02:46.744Z,51.216084
2022-11-05T05:03:46.737Z,51.216125
2022-11-05T05:04:46.741Z,51.215847
2022-11-05T05:05:46.724Z,51.215839
2022-11-05T05:06:46.709Z,51.215843
2022-11-05T05:07:46.701Z,51.216011
2022-11-05T05:08:46.713Z,51.216213
2022-11-05T05:09:46.709Z,51.216282
2022-11-05T05:10:46.704Z,51.216137
2022-11-05T05:11:46.663Z,51.216045
2022-11-05T05:12:46.666Z,51.216007
2022-11-05T05:13:46.646Z,51.216103
2022-11-05T05:14:46.644Z,51.216148
2022-11-05T05:15:46.648Z,51.216125
2022-11-05T05:16:46.624Z,51.216030
2022-11-05T05:17:46.722Z,51.216103
2022-11-05T05:18:46.734Z,51.216118
2022-11-05T05:19:46.636Z,51.216106
2022-11-05T05:20:46.612Z,51.216194
2022-11-05T05:21:46.617Z,51.216114
2022-11-05T05:22:46.576Z,51.216110
2022-11-05T05:23:46.581Z,51.216068
2022-11-05T05:24:52.403Z,51.216022
2022-11-05T05:25:48.583Z,51.215973
2022-11-05T05:26:46.566Z,51.216064
2022-11-05T05:27:46.557Z,51.216057
2022-11-05T05:28:46.555Z,51.216141
2022-11-05T05:29:46.543Z,51.216133
2022-11-05T05:30:46.540Z,51.216003
2022-11-05T05:31:46.531Z,51.216038
2022-11-05T05:32:46.519Z,51.216072
2022-11-05T05:33:46.516Z,51.216000
2022-11-05T05:34:46.518Z,51.216019
2022-11-05T05:35:46.491Z,51.216091
2022-11-05T05:36:46.491Z,51.216152
2022-11-05T05:37:46.491Z,51.216068
2022-11-05T05:38:46.485Z,51.216087
2022-11-05T05:39:46.482Z,51.216087
2022-11-05T05:40:46.469Z,51.216106
2022-11-05T05:41:46.458Z,51.216095
2022-11-05T05:42:46.450Z,51.216137
2022-11-05T05:43:46.438Z,51.216125
2022-11-05T05:44:46.441Z,51.216091
2022-11-05T05:45:46.453Z,51.216110
2022-11-05T05:46:46.422Z,51.216167
2022-11-05T05:47:46.410Z,51.216087
2022-11-05T05:48:46.397Z,51.216122
2022-11-05T05:49:46.394Z,51.216091
2022-11-05T05:50:46.414Z,51.215885
2022-11-05T05:51:46.389Z,51.215984
2022-11-05T05:52:46.384Z,51.215946
2022-11-05T05:53:46.368Z,51.215923
2022-11-05T05:54:46.374Z,51.215847
2022-11-05T05:55:46.377Z,51.216068
2022-11-05T05:56:46.354Z,51.216122
2022-11-05T05:57:46.341Z,51.216152
2022-11-05T05:58:46.335Z,51.216122
2022-11-05T05:59:46.360Z,51.216045
2022-11-05T06:00:46.339Z,51.216030
2022-11-05T06:01:46.443Z,51.216057
2022-11-05T06:02:46.454Z,51.216110
2022-11-05T06:03:46.301Z,51.216228
2022-11-05T06:04:46.305Z,51.216194
2022-11-05T06:05:46.293Z,51.216232
2022-11-05T06:06:46.313Z,51.216103
2022-11-05T06:07:46.278Z,51.216087
2022-11-05T06:08:46.269Z,51.216141
2022-11-05T06:09:46.270Z,51.216114
2022-11-05T06:10:46.290Z,51.216148
2022-11-05T06:11:46.250Z,51.216385
2022-11-05T06:12:46.254Z,51.216175
2022-11-05T06:13:46.237Z,51.216072
2022-11-05T06:14:46.234Z,51.216053
2022-11-05T06:15:46.221Z,51.216053
2022-11-05T06:16:46.216Z,51.216103
2022-11-05T06:17:46.231Z,51.216133
2022-11-05T06:18:46.207Z,51.216053
2022-11-05T06:19:46.200Z,51.216187
2022-11-05T06:20:46.190Z,51.216038
2022-11-05T06:21:46.186Z,51.216190
2022-11-05T06:22:46.171Z,51.216106
2022-11-05T06:23:46.185Z,51.216026
2022-11-05T06:24:46.161Z,51.216137
2022-11-05T06:25:46.162Z,51.216125
2022-11-05T06:26:46.164Z,51.216110
2022-11-05T06:27:46.153Z,51.216167
2022-11-05T06:28:46.157Z,51.216141
2022-11-05T06:29:46.146Z,51.216198
2022-11-05T06:30:46.122Z,51.216240
2022-11-05T06:31:46.122Z,51.216312
2022-11-05T06:32:46.119Z,51.216232
2022-11-05T06:33:46.108Z,51.216244
2022-11-05T06:34:46.096Z,51.216133
2022-11-05T06:35:46.092Z,51.216133
2022-11-05T06:36:46.088Z,51.216160
2022-11-05T06:37:46.096Z,51.216141
2022-11-05T06:38:46.085Z,51.216282
2022-11-05T06:39:46.055Z,51.216305
2022-11-05T06:40:46.056Z,51.216320
2022-11-05T06:42:11.820Z,51.216232
2022-11-05T06:42:48.031Z,51.216301
2022-11-05T06:43:46.040Z,51.216198
2022-11-05T06:44:46.047Z,51.216183
2022-11-05T06:45:46.029Z,51.216255
2022-11-05T06:46:48.669Z,51.216042
2022-11-05T06:47:47.019Z,51.216156
2022-11-05T06:48:46.015Z,51.216164
2022-11-05T06:49:45.999Z,51.216087
2022-11-05T06:50:45.995Z,51.216057
2022-11-05T06:51:45.976Z,51.216057
2022-11-05T06:52:45.984Z,51.216114
2022-11-05T06:53:46.007Z,51.216125
2022-11-05T06:54:45.963Z,51.216183
2022-11-05T06:55:45.959Z,51.216286
2022-11-05T06:56:45.955Z,51.216179
2022-11-05T06:57:45.947Z,51.216129
2022-11-05T06:58:45.947Z,51.216133
2022-11-05T06:59:45.934Z,51.216164
2022-11-05T07:00:46.002Z,51.216206
2022-11-05T07:01:46.001Z,51.216171
2022-11-05T07:02:45.923Z,51.216118
2022-11-05T07:03:45.916Z,51.216145
2022-11-05T07:04:45.916Z,51.216114
2022-11-05T07:05:45.905Z,51.216000
2022-11-05T07:06:45.890Z,51.216015
2022-11-05T07:07:45.885Z,51.216019
2022-11-05T07:08:45.880Z,51.215950
2022-11-05T07:09:45.880Z,51.215973
2022-11-05T07:10:45.888Z,51.216038
2022-11-05T07:11:45.873Z,51.215885
2022-11-05T07:12:45.850Z,51.215981
2022-11-05T07:13:45.831Z,51.216068
2022-11-05T07:14:45.836Z,51.216091
2022-11-05T07:15:45.816Z,51.216076
2022-11-05T07:16:45.837Z,51.215805
2022-11-05T07:17:45.813Z,51.215862
2022-11-05T07:18:45.808Z,51.215923
2022-11-05T07:19:45.792Z,51.215816
2022-11-05T07:20:45.790Z,51.215931
2022-11-05T07:21:45.781Z,51.215923
2022-11-05T07:22:45.792Z,51.215923
2022-11-05T07:23:45.760Z,51.215862
2022-11-05T07:24:45.747Z,51.215897
2022-11-05T07:25:45.749Z,51.216068
2022-11-05T07:26:45.741Z,51.215992
2022-11-05T07:27:45.750Z,51.215996
2022-11-05T07:28:45.740Z,51.216106
2022-11-05T07:29:45.716Z,51.216114
2022-11-05T07:30:45.739Z,51.216049
2022-11-05T07:31:45.713Z,51.216110
2022-11-05T07:32:45.703Z,51.216171
2022-11-05T07:33:45.705Z,51.216076
2022-11-05T07:34:45.712Z,51.216057
2022-11-05T07:35:45.706Z,51.216133
2022-11-05T07:36:45.685Z,51.216110
2022-11-05T07:37:45.677Z,51.216125
2022-11-05T07:38:45.689Z,51.216141
2022-11-05T07:39:45.661Z,51.216118
2022-11-05T07:40:45.648Z,51.216110
2022-11-05T07:41:45.650Z,51.216095
2022-11-05T07:42:45.635Z,51.216125
2022-11-05T07:43:45.690Z,51.216103
2022-11-05T07:44:45.640Z,51.216072
2022-11-05T07:45:45.629Z,51.216015
2022-11-05T07:46:45.606Z,51.216053
2022-11-05T07:47:45.607Z,51.215969
2022-11-05T07:48:45.593Z,51.215973
2022-11-05T07:49:45.627Z,51.216053
2022-11-05T07:50:45.583Z,51.215996
2022-11-05T07:51:45.562Z,51.215935
2022-11-05T07:52:46.566Z,51.215969
2022-11-05T07:53:45.827Z,51.216057
2022-11-05T07:54:45.597Z,51.216114
2022-11-05T07:55:45.549Z,51.216076
2022-11-05T07:56:45.538Z,51.216164
2022-11-05T07:57:45.530Z,51.216080
2022-11-05T07:58:45.522Z,51.216076
2022-11-05T07:59:45.525Z,51.216026
2022-11-05T08:00:45.643Z,51.216022
2022-11-05T08:01:45.659Z,51.216038
2022-11-05T08:02:45.743Z,51.216141
2022-11-05T08:03:45.541Z,51.216007
2022-11-05T08:04:45.489Z,51.215939
2022-11-05T08:05:45.494Z,51.215897
2022-11-05T08:06:45.486Z,51.216000
2022-11-05T08:07:45.469Z,51.216068
2022-11-05T08:08:45.457Z,51.216236
2022-11-05T08:09:45.461Z,51.216156
2022-11-05T08:10:45.466Z,51.216080
2022-11-05T08:11:45.446Z,51.216202
2022-11-05T08:12:45.437Z,51.216084
2022-11-05T08:13:45.441Z,51.216080
2022-11-05T08:14:45.442Z,51.216118
2022-11-05T08:15:45.407Z,51.216106
2022-11-05T08:16:45.404Z,51.216122
2022-11-05T08:17:45.402Z,51.216125
2022-11-05T08:18:45.398Z,51.216084
2022-11-05T08:19:45.371Z,51.216148
2022-11-05T08:20:45.369Z,51.216202
2022-11-05T08:21:45.370Z,51.216064
2022-11-05T08:22:45.352Z,51.216007
2022-11-05T08:23:45.350Z,51.216003
2022-11-05T08:24:45.347Z,51.216110
2022-11-05T08:25:45.333Z,51.216164
2022-11-05T08:26:45.338Z,51.216492
2022-11-05T08:27:45.322Z,51.216217
2022-11-05T08:28:45.311Z,51.216175
2022-11-05T08:29:45.349Z,51.216316
2022-11-05T08:30:45.297Z,51.216118
2022-11-05T08:31:45.353Z,51.216324
2022-11-05T08:32:45.286Z,51.216244
2022-11-05T08:33:45.277Z,51.216137
2022-11-05T08:34:45.270Z,51.216175
2022-11-05T08:35:45.263Z,51.216084
2022-11-05T08:36:45.257Z,51.216152
2022-11-05T08:37:45.263Z,51.216106
2022-11-05T08:38:45.253Z,51.216141
2022-11-05T08:39:45.249Z,51.216209
2022-11-05T08:40:45.298Z,51.215992
2022-11-05T08:41:45.233Z,51.216148
2022-11-05T08:42:45.218Z,51.216167
2022-11-05T08:43:45.210Z,51.216076
2022-11-05T08:44:45.199Z,51.216141
2022-11-05T08:45:45.199Z,51.216076
2022-11-05T08:46:45.197Z,51.216038
2022-11-05T08:47:45.195Z,51.215935
2022-11-05T08:48:45.179Z,51.216080
2022-11-05T08:49:45.175Z,51.216164
2022-11-05T08:50:46.175Z,51.216133
2022-11-05T08:51:45.178Z,51.216316
2022-11-05T08:52:45.151Z,51.215939
2022-11-05T08:53:45.143Z,51.215626
2022-11-05T08:54:45.140Z,51.215698
2022-11-05T08:55:45.159Z,51.215897
2022-11-05T08:56:45.134Z,51.215855
2022-11-05T08:57:45.127Z,51.215973
2022-11-05T08:58:45.122Z,51.215984
2022-11-05T08:59:45.119Z,51.216141
2022-11-05T09:00:45.190Z,51.216064
2022-11-05T09:01:45.263Z,51.216228
2022-11-05T09:02:45.150Z,51.216103
2022-11-05T09:03:45.089Z,51.216206
2022-11-05T09:04:45.084Z,51.216152
2022-11-05T09:05:45.087Z,51.216106
2022-11-05T09:06:45.085Z,51.216064
2022-11-05T09:07:45.058Z,51.216042
2022-11-05T09:08:45.051Z,51.216110
2022-11-05T09:09:45.035Z,51.216099
2022-11-05T09:10:45.027Z,51.216091
2022-11-05T09:12:10.611Z,51.216122
2022-11-05T09:12:47.051Z,51.216072
2022-11-05T09:13:45.086Z,51.216072
2022-11-05T09:14:45.035Z,51.216087
2022-11-05T09:15:45.000Z,51.216106
2022-11-05T09:16:44.985Z,51.216080
2022-11-05T09:17:45.002Z,51.216156
2022-11-05T09:18:44.994Z,51.216129
2022-11-05T09:19:45.675Z,51.216106
2022-11-05T09:20:45.669Z,51.216137
2022-11-05T09:21:44.958Z,51.216133
2022-11-05T09:22:44.958Z,51.216145
2022-11-05T09:23:44.993Z,51.216114
2022-11-05T09:24:44.950Z,51.216209
2022-11-05T09:25:44.960Z,51.216198
2022-11-05T09:26:44.924Z,51.216164
2022-11-05T09:27:44.938Z,51.216167
2022-11-05T09:28:44.941Z,51.216110
2022-11-05T09:29:44.921Z,51.216125
2022-11-05T09:30:44.924Z,51.216125
2022-11-05T09:31:44.959Z,51.216110
2022-11-05T09:32:44.916Z,51.216156
2022-11-05T09:33:44.949Z,51.216122
2022-11-05T09:34:44.971Z,51.216183
2022-11-05T09:35:44.869Z,51.216171
2022-11-05T09:36:44.870Z,51.216179
2022-11-05T09:37:44.858Z,51.216129
2022-11-05T09:38:44.889Z,51.216091
2022-11-05T09:39:44.860Z,51.216091
2022-11-05T09:40:44.866Z,51.216026
2022-11-05T09:41:44.842Z,51.216129
2022-11-05T09:42:44.829Z,51.216095
2022-11-05T09:43:44.843Z,51.216084
2022-11-05T09:44:44.806Z,51.216118
2022-11-05T09:45:45.805Z,51.216141
2022-11-05T09:46:44.808Z,51.216106
2022-11-05T09:47:44.801Z,51.216133
2022-11-05T09:48:44.776Z,51.216080
2022-11-05T09:49:45.781Z,51.216099
2022-11-05T09:50:44.772Z,51.216122
2022-11-05T09:51:44.776Z,51.216076
2022-11-05T09:52:44.765Z,51.216034
2022-11-05T09:53:44.753Z,51.215977
2022-11-05T09:54:44.748Z,51.216011
2022-11-05T09:55:44.745Z,51.216026
2022-11-05T09:56:44.870Z,51.216000
2022-11-05T09:57:44.732Z,51.215950
2022-11-05T09:58:44.720Z,51.215931
2022-11-05T09:59:44.724Z,51.215893
2022-11-05T10:00:44.739Z,51.215912
2022-11-05T10:01:44.842Z,51.216019
2022-11-05T10:02:44.720Z,51.216042
2022-11-05T10:03:44.766Z,51.216103
2022-11-05T10:04:44.677Z,51.216125
2022-11-05T10:05:44.842Z,51.216026
2022-11-05T10:06:44.665Z,51.215969
2022-11-05T10:07:44.697Z,51.216042
2022-11-05T10:08:44.660Z,51.216087
2022-11-05T10:09:44.658Z,51.216114
2022-11-05T10:10:44.646Z,51.216129
2022-11-05T10:11:44.648Z,51.216114
2022-11-05T10:12:44.648Z,51.216145
2022-11-05T10:13:44.631Z,51.216187
2022-11-05T10:14:44.628Z,51.216145
2022-11-05T10:15:44.612Z,51.216160
2022-11-05T10:16:44.613Z,51.216145
2022-11-05T10:17:44.641Z,51.216057
2022-11-05T10:18:44.683Z,51.216099
2022-11-05T10:19:44.592Z,51.216125
2022-11-05T10:20:44.596Z,51.216103
2022-11-05T10:22:05.441Z,51.216106
2022-11-05T10:22:49.497Z,51.216129
2022-11-05T10:23:45.579Z,51.216049
2022-11-05T10:24:44.576Z,51.216072
2022-11-05T10:25:44.565Z,51.216152
2022-11-05T10:26:44.571Z,51.216145
2022-11-05T10:27:44.568Z,51.216148
2022-11-05T10:28:44.548Z,51.216175
2022-11-05T10:29:44.552Z,51.216187
2022-11-05T10:30:44.548Z,51.216370
2022-11-05T10:31:44.528Z,51.216301
2022-11-05T10:32:44.532Z,51.216297
2022-11-05T10:33:44.548Z,51.216240
2022-11-05T10:34:44.517Z,51.216099
2022-11-05T10:35:44.625Z,51.216015
2022-11-05T10:36:44.531Z,51.216022
2022-11-05T10:37:44.504Z,51.216061
2022-11-05T10:38:44.521Z,51.216122
2022-11-05T10:39:45.134Z,51.216164
2022-11-05T10:40:44.483Z,51.216148
2022-11-05T10:41:44.476Z,51.216125
2022-11-05T10:42:44.486Z,51.216072
2022-11-05T10:43:44.477Z,51.216022
2022-11-05T10:44:44.484Z,51.215992
2022-11-05T10:45:44.477Z,51.215988
2022-11-05T10:46:44.523Z,51.216061
2022-11-05T10:47:44.454Z,51.216091
2022-11-05T10:48:44.450Z,51.216087
2022-11-05T10:49:44.441Z,51.216125
2022-11-05T10:50:44.444Z,51.216114
2022-11-05T10:51:44.433Z,51.216087
2022-11-05T10:52:44.412Z,51.216007
2022-11-05T10:53:44.419Z,51.215927
2022-11-05T10:54:44.460Z,51.215942
2022-11-05T10:55:44.401Z,51.216118
2022-11-05T10:56:44.388Z,51.216141
2022-11-05T10:57:44.400Z,51.216141
2022-11-05T10:58:44.388Z,51.216141
2022-11-05T10:59:44.378Z,51.216141
2022-11-05T11:00:44.437Z,51.216099
2022-11-05T11:01:44.472Z,51.216080
2022-11-05T11:02:44.364Z,51.216148
2022-11-05T11:03:44.360Z,51.216110
2022-11-05T11:04:44.345Z,51.216106
2022-11-05T11:05:44.365Z,51.216053
2022-11-05T11:06:44.344Z,51.216095
2022-11-05T11:07:44.336Z,51.216118
2022-11-05T11:08:44.321Z,51.216133
2022-11-05T11:09:44.419Z,51.216122
2022-11-05T11:10:44.321Z,51.216141
2022-11-05T11:11:44.329Z,51.216137
2022-11-05T11:12:44.297Z,51.216072
2022-11-05T11:13:44.367Z,51.215969
2022-11-05T11:14:44.295Z,51.216007
2022-11-05T11:15:44.291Z,51.216129
2022-11-05T11:16:44.302Z,51.216049
2022-11-05T11:17:44.272Z,51.216118
2022-11-05T11:18:44.291Z,51.216045
2022-11-05T11:19:44.256Z,51.216080
2022-11-05T11:20:44.267Z,51.216084
2022-11-05T11:21:44.281Z,51.216095
2022-11-05T11:22:44.243Z,51.216091
2022-11-05T11:23:44.234Z,51.216080
2022-11-05T11:24:44.231Z,51.216064